TimeEDT,TemperatureF,Dew PointF,Humidity,Sea Level PressureIn,VisibilityMPH,Wind Direction,Wind SpeedMPH,Gust SpeedMPH,PrecipitationIn,Events,Conditions,WindDirDegrees,DateUTC
12:52 AM,55.0,51.1,86,30.17,10.0,Calm,Calm,-,N/A,,Clear,0,2013-06-20 04:52:00
1:52 AM,55.0,51.1,86,30.19,10.0,SSW,3.5,-,N/A,,Clear,210,2013-06-20 05:52:00
2:52 AM,53.1,48.9,86,30.18,10.0,Calm,Calm,-,N/A,,Clear,0,2013-06-20 06:52:00
3:52 AM,53.1,48.9,86,30.19,10.0,Calm,Calm,-,N/A,,Clear,0,2013-06-20 07:52:00
4:52 AM,53.1,48.9,86,30.21,10.0,Calm,Calm,-,N/A,,Clear,0,2013-06-20 08:52:00
5:52 AM,53.1,51.1,93,30.22,10.0,Calm,Calm,-,N/A,,Clear,0,2013-06-20 09:52:00
6:52 AM,60.1,54.0,80,30.24,10.0,SW,4.6,-,N/A,,Clear,220,2013-06-20 10:52:00
7:52 AM,63.0,55.9,78,30.26,10.0,SW,5.8,-,N/A,,Clear,230,2013-06-20 11:52:00
8:52 AM,66.9,55.9,68,30.26,10.0,SSW,3.5,-,N/A,,Clear,200,2013-06-20 12:52:00
9:52 AM,71.1,55.9,59,30.26,10.0,Calm,Calm,-,N/A,,Clear,0,2013-06-20 13:52:00
10:52 AM,73.0,54.0,51,30.25,10.0,SSW,4.6,-,N/A,,Clear,200,2013-06-20 14:52:00
11:52 AM,73.0,53.1,49,30.25,10.0,West,5.8,-,N/A,,Overcast,260,2013-06-20 15:52:00
12:52 PM,75.0,55.0,50,30.25,10.0,Variable,6.9,-,N/A,,Mostly Cloudy,0,2013-06-20 16:52:00
1:52 PM,73.9,53.1,48,30.25,10.0,Variable,3.5,-,N/A,,Mostly Cloudy,0,2013-06-20 17:52:00
2:52 PM,75.0,57.9,55,30.24,10.0,SSE,10.4,-,N/A,,Scattered Clouds,160,2013-06-20 18:52:00
3:52 PM,73.0,55.9,55,30.23,10.0,SSE,8.1,-,N/A,,Scattered Clouds,160,2013-06-20 19:52:00
4:52 PM,73.9,55.0,52,30.22,10.0,SSE,9.2,-,N/A,,Scattered Clouds,160,2013-06-20 20:52:00
5:52 PM,73.9,50.0,43,30.22,10.0,SW,12.7,19.6,N/A,,Clear,220,2013-06-20 21:52:00
6:52 PM,72.0,53.1,51,30.24,10.0,SSW,9.2,-,N/A,,Clear,200,2013-06-20 22:52:00
7:52 PM,68.0,51.1,55,30.26,10.0,SSW,8.1,-,N/A,,Clear,200,2013-06-20 23:52:00
8:52 PM,64.0,51.1,63,30.27,10.0,Variable,4.6,-,N/A,,Clear,0,2013-06-21 00:52:00
9:52 PM,62.1,52.0,70,30.29,10.0,SSW,6.9,-,N/A,,Clear,200,2013-06-21 01:52:00
10:52 PM,61.0,53.1,75,30.28,10.0,SSW,5.8,-,N/A,,Clear,200,2013-06-21 02:52:00
11:52 PM,60.1,55.0,83,30.28,10.0,SSW,5.8,-,N/A,,Clear,200,2013-06-21 03:52:00